createdAt,value
2023-07-06T09:02:48.446Z,60.06
2023-07-06T09:07:34.722Z,61.76
2023-07-06T09:10:48.527Z,62.06
2023-07-06T09:14:50.234Z,63.58
2023-07-06T09:18:47.739Z,63.35
2023-07-06T09:22:48.579Z,63.21
2023-07-06T09:26:47.037Z,63.27
2023-07-06T09:30:48.468Z,64.87
2023-07-06T09:34:50.604Z,64.84
2023-07-06T09:38:47.491Z,64.04
2023-07-06T09:42:49.441Z,64.84
2023-07-06T09:46:47.402Z,62.46
2023-07-06T09:50:51.667Z,62.47
2023-07-06T09:54:55.077Z,62.45
2023-07-06T09:58:49.581Z,61.72
2023-07-06T10:02:57.968Z,59.14
2023-07-06T10:07:00.140Z,59.77
2023-07-06T10:11:02.780Z,57.87
2023-07-06T10:14:50.212Z,55.34
2023-07-06T10:18:51.940Z,55.76
2023-07-06T10:23:04.569Z,54.65
2023-07-06T10:26:52.717Z,57.03
2023-07-06T10:30:50.824Z,55.72
2023-07-06T10:34:54.320Z,55.45
2023-07-06T10:38:47.424Z,57.07
2023-07-06T10:42:51.660Z,55.11
2023-07-06T10:46:55.099Z,55.72
2023-07-06T10:50:50.101Z,55.04
2023-07-06T10:54:48.268Z,52.46
2023-07-06T10:58:54.960Z,53.30
2023-07-06T11:02:47.810Z,53.37
2023-07-06T11:06:52.150Z,53.03
2023-07-06T11:10:49.414Z,52.08
2023-07-06T11:14:48.862Z,53.38
2023-07-06T11:18:51.567Z,52.04
2023-07-06T11:22:52.106Z,51.73
2023-07-06T11:26:52.122Z,51.00
2023-07-06T11:30:56.441Z,51.15
2023-07-06T11:35:05.015Z,50.24
2023-07-06T11:39:02.112Z,50.54
2023-07-06T11:43:02.550Z,49.76
2023-07-06T11:46:58.859Z,49.28
2023-07-06T11:54:55.005Z,48.33
2023-07-06T11:58:54.667Z,48.94
2023-07-06T12:02:58.305Z,48.37
2023-07-06T12:06:48.262Z,46.80
2023-07-06T12:10:51.425Z,45.73
2023-07-06T12:14:48.473Z,45.54
2023-07-06T12:18:55.857Z,46.32
2023-07-06T12:22:51.145Z,46.35
2023-07-06T12:26:50.290Z,45.91
2023-07-06T12:30:49.361Z,44.19
2023-07-06T12:34:50.820Z,45.42
2023-07-06T12:38:54.177Z,45.11
2023-07-06T12:42:48.121Z,42.69
2023-07-06T12:46:51.343Z,44.68
2023-07-06T12:50:50.562Z,41.78
2023-07-06T12:54:52.640Z,45.32
2023-07-06T12:58:57.610Z,42.54
2023-07-06T13:02:54.990Z,41.52
2023-07-06T13:06:52.659Z,42.73
2023-07-06T13:10:57.016Z,42.92
2023-07-06T13:14:50.934Z,43.42
2023-07-06T13:18:48.064Z,43.41
2023-07-06T13:22:47.844Z,43.16
2023-07-06T13:26:50.529Z,43.30
2023-07-06T13:30:49.024Z,42.06
2023-07-06T13:34:49.656Z,43.16
2023-07-06T13:38:48.800Z,41.55
2023-07-06T13:42:50.186Z,43.19
2023-07-06T13:46:48.931Z,43.01
2023-07-06T13:50:48.408Z,43.17
2023-07-06T13:54:48.527Z,42.20
2023-07-06T13:58:48.288Z,43.02
2023-07-06T14:02:48.402Z,43.43
2023-07-06T14:06:47.984Z,43.24
2023-07-06T14:10:48.597Z,43.02
2023-07-06T14:14:47.967Z,41.07
2023-07-06T14:18:48.570Z,43.40
2023-07-06T14:22:47.921Z,41.74
2023-07-06T14:26:48.269Z,43.41
2023-07-06T14:30:48.940Z,43.16
2023-07-06T14:34:48.110Z,43.16
2023-07-06T14:38:48.011Z,42.43
2023-07-06T14:42:52.945Z,42.25
2023-07-06T14:46:48.584Z,42.13
2023-07-06T14:50:48.563Z,41.86
2023-07-06T14:54:47.996Z,40.70
2023-07-06T14:58:49.017Z,39.41
2023-07-06T15:02:50.287Z,40.39
2023-07-06T15:06:48.200Z,40.64
2023-07-06T15:10:48.615Z,40.82
2023-07-06T15:15:28.161Z,40.30
2023-07-06T15:18:48.387Z,40.30
2023-07-06T15:22:48.180Z,40.40
2023-07-06T15:26:48.823Z,41.27
2023-07-06T15:30:48.284Z,41.03
2023-07-06T15:35:00.401Z,39.51
2023-07-06T15:38:48.340Z,40.12
2023-07-06T15:46:48.647Z,39.94
2023-07-06T15:50:50.003Z,39.50
2023-07-06T15:54:48.342Z,39.92
2023-07-06T15:58:57.421Z,40.55
2023-07-06T16:06:48.497Z,40.18
2023-07-06T16:10:50.099Z,39.89
2023-07-06T16:14:48.311Z,39.33
2023-07-06T16:18:48.716Z,39.32
2023-07-06T16:22:48.366Z,39.07
2023-07-06T16:26:48.266Z,39.01
2023-07-06T16:30:48.514Z,39.91
2023-07-06T16:34:48.305Z,39.12
2023-07-06T16:38:48.641Z,38.33
2023-07-06T16:42:48.326Z,38.50
2023-07-06T16:46:48.985Z,38.68
2023-07-06T16:50:54.253Z,38.73
2023-07-06T16:54:49.143Z,37.70
2023-07-06T16:58:48.581Z,37.89
2023-07-06T17:02:49.304Z,37.91
2023-07-06T17:06:48.389Z,37.96
2023-07-06T17:10:49.267Z,38.79
2023-07-06T17:14:48.359Z,38.09
2023-07-06T17:18:49.545Z,39.19
2023-07-06T17:22:48.717Z,39.05
2023-07-06T17:26:48.552Z,38.84
2023-07-06T17:30:48.560Z,38.42
2023-07-06T17:34:48.685Z,38.42
2023-07-06T17:38:48.494Z,37.33
2023-07-06T17:42:48.616Z,36.32
2023-07-06T17:46:48.705Z,35.71
2023-07-06T17:50:48.705Z,35.90
2023-07-06T17:54:48.521Z,34.79
2023-07-06T17:58:48.752Z,35.28
2023-07-06T18:02:49.524Z,33.75
2023-07-06T18:06:48.830Z,35.09
2023-07-06T18:10:48.602Z,34.51
2023-07-06T18:14:48.656Z,35.16
2023-07-06T18:18:48.674Z,35.40
2023-07-06T18:22:48.862Z,33.83
2023-07-06T18:26:48.597Z,34.21
2023-07-06T18:30:48.736Z,35.04
2023-07-06T18:34:48.674Z,34.25
2023-07-06T18:39:10.677Z,35.21
2023-07-06T18:43:36.408Z,34.62
2023-07-06T18:50:49.567Z,34.65
2023-07-06T18:54:48.770Z,34.50
2023-07-06T18:58:48.822Z,34.83
2023-07-06T19:02:48.782Z,34.81
2023-07-06T19:06:48.948Z,35.45
2023-07-06T19:10:48.732Z,36.13
2023-07-06T19:14:48.817Z,36.56
2023-07-06T19:18:48.738Z,36.81
2023-07-06T19:22:49.588Z,37.38
2023-07-06T19:26:49.083Z,37.65
2023-07-06T19:30:49.072Z,37.33
2023-07-06T19:34:48.799Z,37.98
2023-07-06T19:38:49.511Z,38.56
2023-07-06T19:42:49.076Z,38.80
2023-07-06T19:46:48.975Z,39.02
2023-07-06T19:50:48.929Z,39.13
2023-07-06T19:54:49.160Z,39.35
2023-07-06T19:58:49.368Z,39.46
2023-07-06T20:02:49.500Z,39.73
2023-07-06T20:06:48.914Z,40.19
2023-07-06T20:10:53.110Z,40.46
2023-07-06T20:15:22.393Z,40.42
2023-07-06T20:19:54.455Z,40.37
2023-07-06T20:22:49.046Z,40.46
2023-07-06T20:26:49.248Z,40.60
2023-07-06T20:30:49.301Z,40.72
2023-07-06T20:34:49.484Z,40.95
2023-07-06T20:38:49.108Z,41.08
2023-07-06T20:43:03.986Z,41.11
2023-07-06T20:46:49.776Z,41.28
2023-07-06T20:50:49.312Z,41.47
2023-07-06T20:54:49.094Z,41.64
2023-07-06T20:58:49.151Z,41.89
2023-07-06T21:02:49.260Z,42.25
2023-07-06T21:06:49.316Z,42.63
2023-07-06T21:10:49.100Z,43.00
2023-07-06T21:14:49.172Z,43.37
2023-07-06T21:18:49.084Z,43.69
2023-07-06T21:22:49.336Z,43.88
2023-07-06T21:26:49.421Z,44.03
2023-07-06T21:30:49.429Z,44.17
2023-07-06T21:34:49.290Z,44.28
2023-07-06T21:38:49.338Z,44.51
2023-07-06T21:42:49.219Z,44.67
2023-07-06T21:46:49.374Z,44.81
2023-07-06T21:50:53.193Z,45.09
2023-07-06T21:54:49.378Z,45.33
2023-07-06T21:58:49.903Z,45.57
2023-07-06T22:02:49.317Z,45.72
2023-07-06T22:06:49.241Z,45.75
2023-07-06T22:10:49.322Z,45.84
2023-07-06T22:14:49.400Z,45.97
2023-07-06T22:18:49.814Z,46.24
2023-07-06T22:22:49.315Z,46.42
2023-07-06T22:26:49.687Z,46.54
2023-07-06T22:30:50.739Z,46.63
2023-07-06T22:34:49.519Z,46.76
2023-07-06T22:38:49.339Z,46.93
2023-07-06T22:42:50.125Z,46.99
2023-07-06T22:46:51.711Z,47.13
2023-07-06T22:50:52.562Z,47.30
2023-07-06T22:54:49.477Z,47.43
2023-07-06T22:58:49.487Z,47.61
2023-07-06T23:02:51.361Z,47.66
2023-07-06T23:06:49.641Z,47.81
2023-07-06T23:10:50.621Z,47.93
2023-07-06T23:14:49.533Z,48.14
2023-07-06T23:18:49.972Z,48.34
2023-07-06T23:22:50.117Z,48.57
2023-07-06T23:26:50.563Z,48.71
2023-07-06T23:30:51.760Z,48.87
2023-07-06T23:34:49.565Z,48.88
2023-07-06T23:38:50.683Z,48.99
2023-07-06T23:42:50.093Z,49.00
2023-07-06T23:46:49.694Z,49.00
2023-07-06T23:50:50.808Z,49.24
2023-07-06T23:54:49.769Z,49.11
2023-07-06T23:58:49.993Z,49.22
